Time;durP1;ratioP1;P1;durP2;ratioP2;P2;SDS_P1;SDS_P2;PMS_P1;PMS_P2;Temp;Humidity;BMP_temperature;BMP_pressure;BME280_temperature;BME280_humidity;BME280_pressure;Samples;Min_cycle;Max_cycle;Signal;HPM_P1;HPM_P2
2022/05/11 00:01:40;;;;;;;15.27;4.20;;;13.50;99.90;;;;;;6214422;23;20052;-90
2022/05/11 00:04:09;;;;;;;12.85;4.10;;;13.50;99.90;;;;;;6214337;23;20019;-91
2022/05/11 00:06:38;;;;;;;8.75;3.78;;;13.50;99.90;;;;;;6214377;23;20029;-90
2022/05/11 00:09:08;;;;;;;11.25;4.07;;;13.50;99.90;;;;;;6189156;23;20022;-90
2022/05/11 00:11:36;;;;;;;14.88;3.53;;;13.50;99.90;;;;;;6189533;23;20020;-90
2022/05/11 00:14:04;;;;;;;11.65;3.45;;;13.50;99.90;;;;;;6213974;23;20024;-90
2022/05/11 00:16:32;;;;;;;13.10;3.72;;;13.40;99.90;;;;;;6213992;23;20071;-91
2022/05/11 00:18:59;;;;;;;17.50;4.22;;;13.50;99.90;;;;;;6189676;23;20012;-90
2022/05/11 00:21:26;;;;;;;15.60;3.40;;;13.50;99.90;;;;;;6214952;23;20017;-90
2022/05/11 00:23:53;;;;;;;13.10;3.85;;;13.50;99.90;;;;;;6189297;23;20340;-89
2022/05/11 00:26:20;;;;;;;6.97;3.65;;;13.50;99.90;;;;;;6189663;23;20031;-90
2022/05/11 00:28:49;;;;;;;22.20;3.80;;;13.50;99.90;;;;;;6215832;23;20024;-90
2022/05/11 00:31:16;;;;;;;10.88;3.17;;;13.50;99.90;;;;;;6190609;23;20025;-90
2022/05/11 00:33:43;;;;;;;14.40;4.60;;;13.40;99.90;;;;;;6214918;23;20108;-90
2022/05/11 00:36:12;;;;;;;11.63;3.83;;;13.40;99.90;;;;;;6189728;23;20070;-90
2022/05/11 00:38:40;;;;;;;10.90;3.75;;;13.40;99.90;;;;;;6189392;23;20421;-90
2022/05/11 00:41:08;;;;;;;9.23;2.80;;;13.40;99.90;;;;;;6214168;23;20027;-90
2022/05/11 00:43:38;;;;;;;17.00;3.30;;;13.40;99.90;;;;;;6213948;23;20020;-90
2022/05/11 00:46:14;;;;;;;5.47;2.80;;;13.40;99.90;;;;;;6222267;22;20004;-90
2022/05/11 00:51:34;;;;;;;12.02;3.05;;;13.40;99.90;;;;;;6214322;23;20024;-91
2022/05/11 00:54:04;;;;;;;8.70;2.83;;;13.40;99.90;;;;;;6216380;23;20021;-90
2022/05/11 00:56:34;;;;;;;9.93;2.97;;;13.40;99.90;;;;;;6215455;23;20016;-90
2022/05/11 00:59:08;;;;;;;13.52;3.40;;;13.40;99.90;;;;;;6190470;23;20127;-90
2022/05/11 01:01:38;;;;;;;12.30;2.92;;;13.40;99.90;;;;;;6164144;23;20444;-90
2022/05/11 01:04:12;;;;;;;9.35;3.17;;;13.40;99.90;;;;;;6188765;23;20027;-90
2022/05/11 01:06:41;;;;;;;7.53;2.65;;;13.30;99.90;;;;;;6166908;23;20073;-90
2022/05/11 01:09:10;;;;;;;13.10;3.38;;;13.30;99.90;;;;;;6189585;23;20025;-90
2022/05/11 01:11:40;;;;;;;9.32;3.33;;;13.30;99.90;;;;;;6189352;23;20051;-90
2022/05/11 01:14:10;;;;;;;8.93;2.83;;;13.30;99.90;;;;;;6189185;23;20021;-90
2022/05/11 01:16:40;;;;;;;13.07;3.78;;;13.30;99.90;;;;;;6188904;23;20023;-90
2022/05/11 01:19:24;;;;;;;17.58;3.90;;;13.30;99.90;;;;;;6189150;23;20012;-90
2022/05/11 01:21:59;;;;;;;13.50;3.47;;;13.30;99.90;;;;;;6189128;23;20448;-90
2022/05/11 01:24:44;;;;;;;16.08;3.42;;;13.30;99.90;;;;;;6189695;23;20044;-89
2022/05/11 01:27:35;;;;;;;15.25;2.83;;;13.30;99.90;;;;;;6163995;23;20024;-90
2022/05/11 01:30:08;;;;;;;10.63;2.58;;;13.20;99.90;;;;;;6188754;23;20017;-90
2022/05/11 01:32:36;;;;;;;16.92;3.35;;;13.30;99.90;;;;;;6188915;23;20023;-90
2022/05/11 01:35:18;;;;;;;15.43;3.28;;;13.30;99.90;;;;;;6188977;23;20017;-90
2022/05/11 01:37:54;;;;;;;12.98;3.22;;;13.30;99.90;;;;;;6165802;23;20021;-91
2022/05/11 01:40:21;;;;;;;16.73;3.63;;;13.20;99.90;;;;;;6164231;23;20020;-88
2022/05/11 01:42:49;;;;;;;15.05;3.72;;;13.20;99.90;;;;;;6189417;23;20021;-90
2022/05/11 01:45:16;;;;;;;15.95;3.42;;;13.20;99.90;;;;;;6188828;23;20024;-90
2022/05/11 01:47:43;;;;;;;14.57;3.78;;;13.20;99.90;;;;;;6164355;23;20067;-91
2022/05/11 01:50:11;;;;;;;23.25;3.40;;;13.20;99.90;;;;;;6189059;23;20070;-90
2022/05/11 01:52:38;;;;;;;11.45;3.22;;;13.20;99.90;;;;;;6188537;23;20463;-90
2022/05/11 01:55:06;;;;;;;17.13;4.05;;;13.20;99.90;;;;;;6171265;23;20026;-90
2022/05/11 01:57:35;;;;;;;9.05;3.80;;;13.10;99.90;;;;;;6194056;23;20307;-90
2022/05/11 02:00:04;;;;;;;13.90;3.55;;;13.10;99.90;;;;;;6194915;23;20016;-90
2022/05/11 02:02:38;;;;;;;9.43;3.47;;;13.10;99.90;;;;;;6230899;23;20024;-90
2022/05/11 02:07:51;;;;;;;11.63;4.18;;;13.10;99.90;;;;;;6220047;23;20059;-90
2022/05/11 02:10:23;;;;;;;15.32;3.78;;;13.10;99.90;;;;;;6224239;23;20099;-90
2022/05/11 02:12:51;;;;;;;13.95;3.40;;;13.10;99.90;;;;;;6203201;23;20070;-89
2022/05/11 02:15:19;;;;;;;21.98;5.30;;;13.00;99.90;;;;;;6227749;23;20016;-91
2022/05/11 02:17:47;;;;;;;6.85;2.70;;;13.10;99.90;;;;;;6171687;23;20106;-89
2022/05/11 02:20:16;;;;;;;20.83;3.50;;;13.00;99.90;;;;;;6206905;23;20506;-90
2022/05/11 02:22:43;;;;;;;8.15;3.85;;;13.00;99.90;;;;;;6196311;23;20359;-90
2022/05/11 02:25:12;;;;;;;13.95;3.45;;;13.00;99.90;;;;;;6220257;23;20020;-88
2022/05/11 02:27:39;;;;;;;17.92;4.57;;;13.00;99.90;;;;;;6195978;23;20052;-91
2022/05/11 02:30:10;;;;;;;10.52;3.40;;;13.00;99.90;;;;;;6196182;23;20020;-90
2022/05/11 02:32:38;;;;;;;17.83;4.72;;;13.00;99.90;;;;;;6248271;23;20020;-91
2022/05/11 02:35:13;;;;;;;11.57;4.28;;;13.00;99.90;;;;;;6220772;23;20020;-90
2022/05/11 02:37:50;;;;;;;17.85;4.22;;;13.00;99.90;;;;;;6221699;23;20505;-89
2022/05/11 02:40:21;;;;;;;11.60;3.10;;;13.00;99.90;;;;;;6223105;23;20435;-89
2022/05/11 02:42:48;;;;;;;14.60;4.00;;;13.00;99.90;;;;;;6220930;23;20034;-89
2022/05/11 02:45:16;;;;;;;11.82;4.97;;;13.00;99.90;;;;;;6220634;23;20115;-89
2022/05/11 02:47:45;;;;;;;11.52;3.13;;;13.00;99.90;;;;;;6196093;23;20072;-90
2022/05/11 02:50:15;;;;;;;19.65;5.00;;;13.00;99.90;;;;;;6220933;23;20020;-90
2022/05/11 02:52:42;;;;;;;13.73;4.45;;;13.00;99.90;;;;;;6220559;23;20020;-90
2022/05/11 02:55:09;;;;;;;14.82;4.25;;;12.90;99.90;;;;;;6220718;23;20448;-90
2022/05/11 02:57:37;;;;;;;16.50;4.75;;;12.90;99.90;;;;;;6196295;23;20039;-89
2022/05/11 03:00:09;;;;;;;16.35;3.95;;;12.90;99.90;;;;;;6195729;23;20016;-89
2022/05/11 03:02:38;;;;;;;15.77;4.15;;;12.90;99.90;;;;;;6220943;23;20044;-90
2022/05/11 03:05:06;;;;;;;16.15;4.00;;;12.90;99.90;;;;;;6253635;22;20016;-90
2022/05/11 03:07:34;;;;;;;9.82;4.03;;;12.80;99.90;;;;;;6205159;23;20467;-88
2022/05/11 03:10:01;;;;;;;17.15;4.45;;;12.90;99.90;;;;;;6200315;23;20416;-90
2022/05/11 03:12:27;;;;;;;13.15;3.97;;;12.90;99.90;;;;;;6230425;23;20024;-91
2022/05/11 03:14:54;;;;;;;15.07;4.13;;;12.90;99.90;;;;;;6226975;23;20024;-90
2022/05/11 03:17:21;;;;;;;21.20;4.53;;;12.90;99.90;;;;;;6224324;23;20034;-90
2022/05/11 03:19:49;;;;;;;14.70;4.18;;;12.90;99.90;;;;;;6194985;23;20051;-89
2022/05/11 03:22:17;;;;;;;16.23;4.20;;;12.90;99.90;;;;;;6194902;23;20020;-90
2022/05/11 03:24:44;;;;;;;11.48;4.35;;;12.90;99.90;;;;;;6194140;23;20366;-90
2022/05/11 03:27:11;;;;;;;13.70;4.38;;;12.90;99.90;;;;;;6220545;23;20027;-90
2022/05/11 03:29:38;;;;;;;17.27;3.88;;;12.90;99.90;;;;;;6220469;23;20028;-90
2022/05/11 03:34:52;;;;;;;12.45;3.95;;;12.80;99.90;;;;;;6219109;23;20062;-90
2022/05/11 03:37:19;;;;;;;17.98;3.88;;;12.90;99.90;;;;;;6219471;23;20462;-89
2022/05/11 03:39:46;;;;;;;19.38;4.43;;;12.90;99.90;;;;;;6219332;23;20016;-90
2022/05/11 03:42:17;;;;;;;7.82;2.95;;;12.90;99.90;;;;;;6220183;23;20027;-89
2022/05/11 03:44:44;;;;;;;14.98;3.83;;;12.90;99.90;;;;;;6196602;23;20020;-90
2022/05/11 03:47:12;;;;;;;15.25;4.35;;;12.90;99.90;;;;;;6220417;23;20032;-90
2022/05/11 03:49:39;;;;;;;9.50;4.13;;;12.90;99.90;;;;;;6194840;23;20026;-89
2022/05/11 03:52:06;;;;;;;13.77;4.32;;;12.90;99.90;;;;;;6246936;23;20040;-89
2022/05/11 03:54:36;;;;;;;9.32;2.90;;;12.90;99.90;;;;;;6217704;23;20107;-90
2022/05/11 03:57:03;;;;;;;10.35;3.42;;;12.90;99.90;;;;;;6189670;23;20519;-90
2022/05/11 03:59:30;;;;;;;16.27;3.25;;;12.80;99.90;;;;;;6189482;23;20040;-90
2022/05/11 04:01:58;;;;;;;9.23;3.22;;;12.90;99.90;;;;;;6188427;23;20021;-89
2022/05/11 04:04:26;;;;;;;16.60;3.30;;;12.80;99.90;;;;;;6190504;23;20054;-91
2022/05/11 04:06:54;;;;;;;9.35;2.33;;;12.90;99.90;;;;;;6189676;23;20031;-89
2022/05/11 04:09:21;;;;;;;10.25;2.67;;;12.90;99.90;;;;;;6185774;23;20110;-90
2022/05/11 04:11:49;;;;;;;22.52;3.42;;;12.90;99.90;;;;;;6186380;23;20348;-91
2022/05/11 04:14:16;;;;;;;12.82;3.20;;;12.90;99.90;;;;;;6216694;23;20020;-89
2022/05/11 04:16:43;;;;;;;10.52;2.95;;;12.90;99.90;;;;;;6189936;23;20017;-90
2022/05/11 04:19:11;;;;;;;16.65;2.95;;;12.90;99.90;;;;;;6165349;23;20044;-92
2022/05/11 04:21:38;;;;;;;18.35;3.17;;;12.90;99.90;;;;;;6189396;23;20044;-87
2022/05/11 04:24:26;;;;;;;14.05;3.20;;;12.90;99.90;;;;;;6164546;23;21825;-94
2022/05/11 04:31:43;;;;;;;6.65;3.17;;;12.80;99.90;;;;;;6161290;23;20084;-92
2022/05/11 04:34:55;;;;;;;8.52;4.18;;;12.90;99.90;;;;;;6187999;23;20024;-93
2022/05/11 04:38:56;;;;;;;11.05;2.88;;;12.90;99.90;;;;;;6108742;23;20081;-92
2022/05/11 04:42:18;;;;;;;12.43;2.42;;;12.80;99.90;;;;;;6171033;23;20012;-92
2022/05/11 04:49:23;;;;;;;16.38;2.55;;;12.80;99.90;;;;;;6190797;23;20345;-90
2022/05/11 04:52:09;;;;;;;11.60;2.55;;;12.80;99.90;;;;;;6166876;23;20444;-90
2022/05/11 04:54:41;;;;;;;12.32;2.47;;;12.80;99.90;;;;;;6189452;23;20400;-90
2022/05/11 04:57:09;;;;;;;16.38;2.60;;;12.80;99.90;;;;;;6191819;23;20039;-89
2022/05/11 04:59:40;;;;;;;13.00;2.88;;;12.90;99.90;;;;;;6191736;23;20036;-90
2022/05/11 05:02:18;;;;;;;11.77;2.28;;;12.90;99.90;;;;;;6164065;23;20091;-90
2022/05/11 05:04:45;;;;;;;17.13;2.70;;;12.80;99.90;;;;;;6163894;23;20047;-90
2022/05/11 05:07:12;;;;;;;17.42;2.08;;;12.90;99.90;;;;;;6163787;23;20024;-90
2022/05/11 05:09:39;;;;;;;13.05;2.25;;;12.90;99.90;;;;;;6188214;23;20523;-89
2022/05/11 05:12:07;;;;;;;16.25;2.22;;;12.80;99.90;;;;;;6188301;23;20017;-90
2022/05/11 05:14:34;;;;;;;10.05;2.75;;;12.90;99.90;;;;;;6188105;23;20111;-90
2022/05/11 05:17:06;;;;;;;12.35;3.22;;;12.90;99.90;;;;;;6188208;23;20415;-90
2022/05/11 05:19:35;;;;;;;14.77;3.95;;;12.90;99.90;;;;;;6164038;23;20044;-90
2022/05/11 05:22:05;;;;;;;10.13;2.85;;;12.90;99.90;;;;;;6215604;23;20032;-90
2022/05/11 05:24:32;;;;;;;7.90;2.63;;;12.80;99.90;;;;;;6138931;23;20024;-89
2022/05/11 05:27:00;;;;;;;18.60;2.95;;;12.90;99.90;;;;;;6188207;23;20031;-90
2022/05/11 05:32:14;;;;;;;12.07;2.33;;;12.90;99.90;;;;;;6188246;23;20024;-89
2022/05/11 05:34:43;;;;;;;13.38;3.25;;;12.90;99.90;;;;;;6163497;23;20024;-90
2022/05/11 05:37:11;;;;;;;16.48;2.47;;;12.90;99.90;;;;;;6188791;23;20394;-89
2022/05/11 05:39:38;;;;;;;11.38;2.45;;;12.90;99.90;;;;;;6188704;23;20013;-90
2022/05/11 05:42:06;;;;;;;14.02;2.60;;;12.90;99.90;;;;;;6189009;23;20384;-89
2022/05/11 05:44:33;;;;;;;13.13;2.40;;;12.90;99.90;;;;;;6188519;23;20047;-90
2022/05/11 05:47:08;;;;;;;16.40;3.75;;;12.90;99.90;;;;;;6188559;23;20048;-90
2022/05/11 05:49:35;;;;;;;14.93;2.92;;;12.90;99.90;;;;;;6188657;23;20048;-90
2022/05/11 05:52:03;;;;;;;9.68;2.60;;;12.90;99.90;;;;;;6215101;23;20501;-90
2022/05/11 05:54:33;;;;;;;9.63;2.38;;;12.90;99.90;;;;;;6188819;23;20024;-90
2022/05/11 05:57:00;;;;;;;10.52;1.95;;;12.90;99.90;;;;;;6188343;23;20045;-89
2022/05/11 05:59:27;;;;;;;15.65;3.65;;;13.00;99.90;;;;;;6187922;23;20055;-90
2022/05/11 06:01:55;;;;;;;20.00;2.25;;;13.00;99.90;;;;;;6187602;23;20021;-90
2022/05/11 06:04:22;;;;;;;18.20;2.85;;;13.00;99.90;;;;;;6188273;23;20432;-89
2022/05/11 06:06:49;;;;;;;12.77;2.13;;;13.00;99.90;;;;;;6163480;23;20024;-89
2022/05/11 06:09:16;;;;;;;14.63;2.10;;;13.00;99.90;;;;;;6189683;23;20047;-89
2022/05/11 06:11:44;;;;;;;9.65;2.40;;;13.00;99.90;;;;;;6189205;23;20090;-91
2022/05/11 06:14:11;;;;;;;13.90;2.83;;;13.00;99.90;;;;;;6187594;23;20027;-90
2022/05/11 06:16:38;;;;;;;17.27;2.25;;;13.00;99.90;;;;;;6188242;23;20017;-91
2022/05/11 06:19:05;;;;;;;17.58;2.85;;;13.00;99.90;;;;;;6187768;23;20017;-90
2022/05/11 06:21:34;;;;;;;13.95;2.50;;;13.10;99.90;;;;;;6214341;23;20388;-89
2022/05/11 06:24:01;;;;;;;18.27;2.70;;;13.00;99.90;;;;;;6163214;23;20415;-91
2022/05/11 06:26:28;;;;;;;14.23;2.92;;;13.10;99.90;;;;;;6188712;23;20082;-91
2022/05/11 06:29:15;;;;;;;21.45;3.00;;;13.10;99.90;;;;;;6189152;23;20055;-91
2022/05/11 06:31:42;;;;;;;16.58;2.72;;;13.10;99.90;;;;;;6188695;23;20028;-90
2022/05/11 06:34:09;;;;;;;15.82;3.03;;;13.10;99.90;;;;;;6189046;23;20359;-92
2022/05/11 06:36:36;;;;;;;17.08;2.55;;;13.10;99.90;;;;;;6188969;23;20013;-91
2022/05/11 06:39:03;;;;;;;20.98;3.50;;;13.10;99.90;;;;;;6115005;23;20048;-90
2022/05/11 06:41:31;;;;;;;16.15;3.38;;;13.10;99.90;;;;;;6188379;23;20091;-91
2022/05/11 06:43:58;;;;;;;9.50;3.20;;;13.10;99.90;;;;;;6188671;23;20043;-91
2022/05/11 06:46:25;;;;;;;13.27;1.92;;;13.10;99.90;;;;;;6188401;23;20059;-91
2022/05/11 06:48:52;;;;;;;15.68;2.35;;;13.10;99.90;;;;;;6188264;23;20100;-91
2022/05/11 06:51:20;;;;;;;13.57;2.55;;;13.10;99.90;;;;;;6188197;23;20044;-91
2022/05/11 06:59:28;;;;;;;12.55;2.78;;;13.20;99.90;;;;;;6190560;23;20028;-91
2022/05/11 07:01:57;;;;;;;16.08;3.25;;;13.30;99.90;;;;;;6190302;23;20074;-90
2022/05/11 07:04:26;;;;;;;18.15;3.40;;;13.30;99.90;;;;;;6165579;23;20024;-91
2022/05/11 07:06:57;;;;;;;23.67;4.97;;;13.40;99.90;;;;;;6190444;23;20050;-91
2022/05/11 07:09:26;;;;;;;14.82;3.40;;;13.40;99.90;;;;;;6165853;23;20091;-91
2022/05/11 07:14:39;;;;;;;14.57;2.65;;;13.40;99.90;;;;;;6218236;23;20032;-90
2022/05/11 07:17:06;;;;;;;26.73;3.55;;;13.40;99.90;;;;;;6191634;23;20013;-91
2022/05/11 07:19:34;;;;;;;31.23;4.18;;;13.40;99.90;;;;;;6191352;23;20016;-90
2022/05/11 07:22:02;;;;;;;16.83;3.92;;;13.50;99.90;;;;;;6218908;23;20020;-92
2022/05/11 07:24:29;;;;;;;19.85;4.25;;;13.40;99.90;;;;;;6165852;23;20017;-90
2022/05/11 07:26:56;;;;;;;19.88;3.45;;;13.40;99.90;;;;;;6190834;23;20024;-91
2022/05/11 07:29:24;;;;;;;14.45;3.33;;;13.40;99.90;;;;;;6190717;23;20020;-90
2022/05/11 07:31:51;;;;;;;26.58;3.10;;;13.50;99.90;;;;;;6190387;23;20044;-89
2022/05/11 07:34:18;;;;;;;22.63;3.70;;;13.40;99.90;;;;;;6191520;23;20016;-90
2022/05/11 07:36:45;;;;;;;17.23;3.50;;;13.50;99.90;;;;;;6191679;23;20020;-90
2022/05/11 07:39:12;;;;;;;21.85;3.70;;;13.50;99.90;;;;;;6195623;23;20352;-90
2022/05/11 07:41:40;;;;;;;23.83;4.03;;;13.50;99.90;;;;;;6220575;23;20021;-90
2022/05/11 07:44:07;;;;;;;19.92;3.22;;;13.50;99.90;;;;;;6169338;23;20017;-90
2022/05/11 07:46:34;;;;;;;22.70;4.18;;;13.60;99.90;;;;;;6165548;23;20400;-90
2022/05/11 07:49:06;;;;;;;26.45;4.13;;;13.70;99.90;;;;;;6190222;23;20043;-89
2022/05/11 07:51:34;;;;;;;28.00;3.70;;;13.70;99.90;;;;;;6190707;23;20025;-90
2022/05/11 07:54:01;;;;;;;16.75;3.70;;;13.70;99.90;;;;;;6189174;23;20336;-89
2022/05/11 08:01:59;;;;;;;26.75;3.45;;;13.80;99.90;;;;;;6247467;23;20070;-90
2022/05/11 08:04:26;;;;;;;20.55;4.30;;;13.80;99.90;;;;;;6219593;23;20021;-90
2022/05/11 08:06:54;;;;;;;15.60;3.13;;;13.80;99.90;;;;;;6219754;23;20086;-90
2022/05/11 08:09:22;;;;;;;12.43;2.90;;;13.80;99.90;;;;;;6194844;23;20043;-89
2022/05/11 08:11:50;;;;;;;13.98;2.75;;;13.80;99.90;;;;;;6194833;23;20024;-89
2022/05/11 08:14:18;;;;;;;17.30;3.10;;;13.80;99.90;;;;;;6246730;22;20016;-89
2022/05/11 08:16:45;;;;;;;16.30;3.47;;;13.90;99.90;;;;;;6194527;23;20102;-90
2022/05/11 08:19:13;;;;;;;21.80;4.30;;;13.90;99.90;;;;;;6219442;23;20389;-90
2022/05/11 08:21:41;;;;;;;22.23;3.83;;;13.90;99.90;;;;;;6194859;23;20016;-90
2022/05/11 08:24:08;;;;;;;26.52;4.55;;;14.00;99.90;;;;;;6195712;22;20020;-91
2022/05/11 08:26:35;;;;;;;15.82;3.03;;;14.10;99.90;;;;;;6170523;23;20070;-90
2022/05/11 08:29:02;;;;;;;20.23;3.20;;;14.00;99.90;;;;;;6220693;23;20027;-91
2022/05/11 08:34:14;;;;;;;20.85;4.15;;;14.10;99.90;;;;;;6219684;23;20023;-89
2022/05/11 08:36:42;;;;;;;18.48;3.17;;;14.10;99.90;;;;;;6195062;23;20093;-90
2022/05/11 08:39:09;;;;;;;12.82;3.78;;;14.10;99.90;;;;;;6220592;23;20111;-90
2022/05/11 08:41:36;;;;;;;23.25;3.28;;;14.10;99.90;;;;;;6248289;23;20012;-89
2022/05/11 08:44:13;;;;;;;13.73;3.10;;;14.10;99.90;;;;;;6224605;22;20362;-89
2022/05/11 08:46:47;;;;;;;23.58;3.50;;;14.10;99.90;;;;;;6218874;23;20035;-89
2022/05/11 08:49:36;;;;;;;15.65;2.88;;;14.20;99.90;;;;;;6218806;23;20031;-89
2022/05/11 08:52:05;;;;;;;17.63;3.45;;;14.10;99.90;;;;;;6193941;23;20024;-89
2022/05/11 08:54:46;;;;;;;14.18;2.97;;;14.10;99.90;;;;;;6218527;23;20601;-89
2022/05/11 08:57:18;;;;;;;24.52;2.83;;;14.30;99.90;;;;;;6188376;23;20052;-90
2022/05/11 08:59:46;;;;;;;22.20;3.60;;;14.30;99.90;;;;;;6213759;23;20075;-89
2022/05/11 09:02:26;;;;;;;21.05;3.97;;;14.40;99.90;;;;;;6188621;23;20432;-89
2022/05/11 09:04:57;;;;;;;15.52;3.65;;;14.30;99.90;;;;;;6214167;23;20016;-90
2022/05/11 09:07:26;;;;;;;22.80;4.43;;;14.30;99.90;;;;;;6189296;23;20078;-89
2022/05/11 09:09:54;;;;;;;20.10;2.70;;;14.40;99.90;;;;;;6189352;23;20448;-89
2022/05/11 09:12:21;;;;;;;22.48;4.20;;;14.50;99.90;;;;;;6163973;23;20384;-90
2022/05/11 09:14:59;;;;;;;16.58;3.10;;;14.50;99.90;;;;;;6189711;23;20016;-89
2022/05/11 09:17:31;;;;;;;21.73;3.70;;;14.50;99.90;;;;;;6188838;23;20112;-89
2022/05/11 09:20:18;;;;;;;13.10;3.00;;;14.50;99.90;;;;;;6189916;23;20017;-90
2022/05/11 09:22:59;;;;;;;22.50;5.20;;;14.50;99.90;;;;;;6188529;23;20444;-88
2022/05/11 09:25:30;;;;;;;24.33;3.58;;;14.60;99.90;;;;;;6188572;23;20076;-91
2022/05/11 09:28:23;;;;;;;22.45;3.63;;;14.60;99.90;;;;;;6214825;23;20020;-90
2022/05/11 09:31:05;;;;;;;19.85;3.60;;;14.60;99.90;;;;;;6215089;23;20417;-90
2022/05/11 09:33:55;;;;;;;15.93;3.13;;;14.70;99.90;;;;;;6189214;23;20342;-89
2022/05/11 09:36:57;;;;;;;27.17;3.63;;;14.70;99.90;;;;;;6185871;23;20025;-89
2022/05/11 09:39:27;;;;;;;23.17;3.63;;;14.80;99.90;;;;;;6189364;23;20075;-91
2022/05/11 09:42:11;;;;;;;16.52;4.07;;;14.90;99.90;;;;;;6194532;23;20356;-90
2022/05/11 09:44:44;;;;;;;21.33;3.45;;;14.80;99.90;;;;;;6170535;23;20013;-91
2022/05/11 09:47:35;;;;;;;19.27;2.85;;;14.80;99.90;;;;;;6189893;23;20024;-91
2022/05/11 09:50:23;;;;;;;17.98;3.42;;;15.00;99.90;;;;;;6216241;23;20079;-91
2022/05/11 09:52:51;;;;;;;17.75;4.45;;;15.00;99.90;;;;;;6189467;23;20013;-89
2022/05/11 09:55:28;;;;;;;29.90;4.30;;;15.00;99.90;;;;;;6199789;23;20016;-91
2022/05/11 09:57:59;;;;;;;15.40;3.85;;;15.10;99.90;;;;;;6219702;23;20091;-91
2022/05/11 10:00:32;;;;;;;20.50;3.80;;;15.10;99.90;;;;;;6220838;23;20020;-90
2022/05/11 10:03:02;;;;;;;16.05;3.72;;;15.10;99.90;;;;;;6199993;23;20020;-90
2022/05/11 10:05:41;;;;;;;18.48;3.05;;;15.20;99.90;;;;;;6250180;22;20016;-90
2022/05/11 10:08:31;;;;;;;21.63;3.72;;;15.20;99.90;;;;;;6222037;23;20028;-91
2022/05/11 10:11:20;;;;;;;18.08;2.90;;;15.30;99.90;;;;;;6224364;23;20485;-90
2022/05/11 10:14:00;;;;;;;15.48;3.00;;;15.30;99.90;;;;;;6218485;22;20481;-90
2022/05/11 10:22:37;;;;;;;17.77;4.43;;;15.40;99.90;;;;;;6245617;23;20019;-91
2022/05/11 10:25:24;;;;;;;24.45;3.80;;;15.50;99.90;;;;;;6193673;23;20107;-90
2022/05/11 10:28:28;;;;;;;12.63;2.80;;;15.50;99.90;;;;;;6219723;23;20538;-91
2022/05/11 10:31:09;;;;;;;14.50;3.90;;;15.60;99.90;;;;;;6194096;23;20030;-90
2022/05/11 10:33:44;;;;;;;16.70;3.20;;;15.60;99.90;;;;;;6220618;23;20016;-90
2022/05/11 10:36:25;;;;;;;14.13;3.17;;;15.70;99.90;;;;;;6221651;23;20369;-90
2022/05/11 10:39:26;;;;;;;14.13;3.20;;;15.70;99.90;;;;;;6221066;23;20091;-90
2022/05/11 10:42:12;;;;;;;11.15;3.30;;;15.70;99.90;;;;;;6176400;23;20020;-90
2022/05/11 10:44:42;;;;;;;21.98;4.03;;;15.70;99.90;;;;;;6195325;23;20046;-90
2022/05/11 10:47:26;;;;;;;19.67;4.10;;;15.80;99.90;;;;;;6195524;23;20078;-89
2022/05/11 10:50:16;;;;;;;12.75;3.67;;;15.80;99.90;;;;;;6195704;23;20016;-90
2022/05/11 10:52:56;;;;;;;12.88;2.35;;;15.80;99.90;;;;;;6195149;23;20024;-90
2022/05/11 10:55:35;;;;;;;22.80;3.83;;;15.90;99.90;;;;;;6194571;23;20020;-90
2022/05/11 10:58:28;;;;;;;16.38;3.35;;;15.90;99.90;;;;;;6219364;23;20026;-89
2022/05/11 11:01:13;;;;;;;14.20;3.50;;;15.90;99.90;;;;;;6218640;23;20348;-90
2022/05/11 11:04:08;;;;;;;19.98;3.17;;;16.00;99.90;;;;;;6217949;23;20099;-90
2022/05/11 11:09:46;;;;;;;20.25;4.60;;;16.10;99.90;;;;;;6244867;23;20012;-91
2022/05/11 11:12:39;;;;;;;15.25;3.38;;;16.10;99.90;;;;;;6245608;23;20012;-90
2022/05/11 11:15:16;;;;;;;23.05;4.22;;;16.20;99.90;;;;;;6217863;23;20020;-90
2022/05/11 11:17:44;;;;;;;16.38;3.42;;;16.30;99.90;;;;;;6193540;23;20016;-91
2022/05/11 11:20:15;;;;;;;13.88;2.45;;;16.30;99.90;;;;;;6245566;23;20012;-91
2022/05/11 11:23:16;;;;;;;13.55;2.75;;;16.30;99.90;;;;;;6220613;23;20016;-90
2022/05/11 11:26:07;;;;;;;23.67;5.10;;;16.20;99.90;;;;;;6218931;23;20028;-91
2022/05/11 11:28:40;;;;;;;14.40;3.05;;;16.40;99.90;;;;;;6218217;23;20325;-91
2022/05/11 11:31:12;;;;;;;21.58;5.35;;;16.40;99.90;;;;;;6218672;23;20027;-90
2022/05/11 11:34:02;;;;;;;14.75;3.20;;;16.40;99.90;;;;;;6193651;23;20024;-91
2022/05/11 11:36:32;;;;;;;18.83;3.72;;;16.50;99.90;;;;;;6245617;22;20020;-89
2022/05/11 11:39:02;;;;;;;18.65;3.67;;;16.60;99.90;;;;;;6193867;23;20042;-90
2022/05/11 11:41:32;;;;;;;13.45;4.32;;;16.50;99.90;;;;;;6217793;23;20012;-91
2022/05/11 11:44:30;;;;;;;11.60;3.13;;;16.40;99.90;;;;;;6193351;22;20026;-89
2022/05/11 11:46:59;;;;;;;17.88;3.00;;;16.40;99.90;;;;;;6218508;23;20034;-91
2022/05/11 11:49:27;;;;;;;16.42;2.78;;;16.60;99.90;;;;;;6192849;23;20020;-89
2022/05/11 11:52:01;;;;;;;18.60;3.30;;;16.70;99.90;;;;;;6218073;23;20024;-91
2022/05/11 11:57:16;;;;;;;10.07;2.95;;;16.70;99.90;;;;;;5070061;28;20426;-90
2022/05/11 11:59:44;;;;;;;11.48;2.28;;;16.80;99.90;;;;;;5068862;28;20033;-89
2022/05/11 12:02:28;;;;;;;17.25;3.90;;;16.90;99.90;;;;;;5068620;28;20127;-90
2022/05/11 12:05:16;;;;;;;16.10;4.18;;;16.80;99.90;;;;;;5059484;28;20041;-90
2022/05/11 12:16:46;;;;;;;15.23;3.80;;;17.00;99.90;;;;;;5060912;28;20037;-90
2022/05/11 12:19:15;;;;;;;19.52;3.25;;;17.00;99.90;;;;;;5069463;28;20037;-90
2022/05/11 12:22:01;;;;;;;18.40;2.83;;;17.20;99.90;;;;;;5069133;28;20481;-90
2022/05/11 12:24:37;;;;;;;12.25;2.80;;;17.30;99.90;;;;;;5071640;28;20064;-90
2022/05/11 12:27:14;;;;;;;8.40;2.40;;;17.50;99.90;;;;;;5071248;28;20079;-90
2022/05/11 12:30:00;;;;;;;10.15;2.03;;;17.30;99.90;;;;;;5070079;28;20098;-92
2022/05/11 12:32:29;;;;;;;14.50;2.95;;;17.50;99.90;;;;;;5068275;28;20064;-91
2022/05/11 12:35:05;;;;;;;14.40;2.65;;;17.40;99.90;;;;;;5067983;28;20047;-90
2022/05/11 12:37:35;;;;;;;15.48;3.20;;;17.50;99.90;;;;;;5068544;28;20044;-90
2022/05/11 12:40:07;;;;;;;14.02;2.55;;;17.60;99.90;;;;;;5035428;28;20064;-90
2022/05/11 12:42:54;;;;;;;9.07;2.70;;;17.60;99.90;;;;;;5067737;28;20041;-90
2022/05/11 12:45:32;;;;;;;14.13;3.13;;;17.60;99.90;;;;;;5067740;28;20102;-91
2022/05/11 12:48:00;;;;;;;19.10;2.85;;;17.70;99.90;;;;;;5068087;28;20048;-90
2022/05/11 12:50:34;;;;;;;12.52;3.83;;;17.70;99.90;;;;;;5051365;28;20118;-90
2022/05/11 12:53:24;;;;;;;9.68;1.98;;;17.90;99.90;;;;;;5069483;28;20040;-90
2022/05/11 12:55:55;;;;;;;18.30;3.65;;;17.80;99.90;;;;;;5069085;28;20043;-91
2022/05/11 12:58:26;;;;;;;19.20;3.38;;;17.90;99.90;;;;;;5070252;28;20045;-90
2022/05/11 13:00:59;;;;;;;11.98;2.17;;;17.80;99.90;;;;;;5071095;28;20044;-91
2022/05/11 13:03:36;;;;;;;15.27;2.58;;;17.90;99.90;;;;;;5072390;28;20410;-91
2022/05/11 13:06:19;;;;;;;10.80;3.22;;;18.00;99.90;;;;;;5051864;28;20045;-91
2022/05/11 13:08:48;;;;;;;18.15;2.95;;;18.00;99.90;;;;;;5055330;28;20041;-90
2022/05/11 13:11:18;;;;;;;11.35;2.35;;;18.00;99.90;;;;;;5054363;28;20152;-91
2022/05/11 13:13:52;;;;;;;10.85;3.05;;;18.00;99.90;;;;;;5056366;28;20048;-90
2022/05/11 13:16:31;;;;;;;12.13;2.58;;;18.00;99.90;;;;;;5038569;28;20066;-91
2022/05/11 13:19:20;;;;;;;15.20;3.50;;;18.00;99.90;;;;;;5054534;28;20040;-91
2022/05/11 13:21:52;;;;;;;15.35;2.90;;;18.00;99.90;;;;;;5053943;28;20045;-91
2022/05/11 13:24:48;;;;;;;12.35;3.17;;;18.00;99.90;;;;;;5037687;28;20355;-91
2022/05/11 13:27:39;;;;;;;14.02;2.88;;;17.90;99.90;;;;;;5054635;28;20094;-90
2022/05/11 13:30:27;;;;;;;13.13;3.47;;;17.90;99.90;;;;;;5056587;28;20049;-91
2022/05/11 13:32:58;;;;;;;11.30;3.10;;;17.90;99.90;;;;;;5055793;28;20041;-90
2022/05/11 13:35:34;;;;;;;12.13;2.65;;;17.90;99.90;;;;;;5056390;28;20041;-90
2022/05/11 13:38:10;;;;;;;7.47;1.75;;;18.00;99.90;;;;;;5061007;28;20052;-91
2022/05/11 13:41:00;;;;;;;13.88;3.42;;;17.90;99.90;;;;;;5063948;28;20095;-90
2022/05/11 13:43:28;;;;;;;11.43;1.98;;;18.00;99.90;;;;;;5039873;28;20048;-89
2022/05/11 13:46:10;;;;;;;8.80;2.60;;;17.90;99.50;;;;;;5040804;28;20073;-90
2022/05/11 13:48:45;;;;;;;6.30;2.55;;;18.00;99.90;;;;;;5056763;28;20052;-91
2022/05/11 13:51:26;;;;;;;10.90;1.85;;;18.00;96.80;;;;;;5055786;28;20087;-89
2022/05/11 13:53:57;;;;;;;9.15;2.80;;;17.90;99.90;;;;;;5037976;28;20410;-91
2022/05/11 13:56:29;;;;;;;11.02;2.00;;;17.80;99.10;;;;;;5037383;28;20406;-90
2022/05/11 13:59:00;;;;;;;14.07;2.22;;;17.90;96.50;;;;;;5037742;28;20102;-91
2022/05/11 14:01:44;;;;;;;12.18;2.45;;;17.80;95.60;;;;;;5053618;28;20041;-90
2022/05/11 14:04:17;;;;;;;8.82;2.35;;;17.90;99.10;;;;;;5055388;28;20437;-94
2022/05/11 14:07:05;;;;;;;11.75;1.85;;;17.70;96.40;;;;;;5055089;28;20048;-93